Date,TemperatureHighF,TemperatureAvgF,TemperatureLowF,DewpointHighF,DewpointAvgF,DewpointLowF,HumidityHigh,HumidityAvg,HumidityLow,PressureMaxIn,PressureMinIn,WindSpeedMaxMPH,WindSpeedAvgMPH,GustSpeedMaxMPH,PrecipitationSumIn
2013-3-1,57.6,57.6,57.6,50.1,50.1,50.1,76,76,76,29.91,29.91,0,0,0,0.00
2013-3-2,55.6,51.5,50.9,33.1,30.3,29.8,44,44,42,30.03,29.94,17,4,17,0.00
2013-3-3,55.6,47.2,0.0,33.1,26.0,-21.1,44,43,35,30.12,29.97,17,4,17,0.00
2013-3-4,69.3,52.7,45.3,43.9,32.3,25.2,73,46,40,30.21,30.09,9,2,9,0.00
2013-3-5,78.3,60.4,43.7,55.2,45.0,37.3,87,60,38,30.15,30.00,10,2,10,0.00
2013-3-6,68.4,38.7,0.0,65.8,25.1,-21.1,96,59,35,30.12,29.91,22,5,22,0.00
2013-3-7,82.9,56.0,47.1,65.7,46.8,39.3,84,72,56,30.21,30.09,10,2,11,0.00
2013-3-8,86.9,58.8,48.2,69.3,51.7,45.2,96,79,56,30.21,30.09,11,2,11,0.00
2013-3-9,73.0,62.9,50.7,61.5,53.7,47.7,94,74,59,30.18,30.12,10,2,10,0.00
2013-3-10,74.7,70.9,65.8,63.7,58.1,56.7,80,65,59,30.15,30.00,8,2,8,0.00
2013-3-11,82.6,68.8,60.6,68.7,62.2,57.8,100,80,62,30.06,29.83,11,2,11,0.00
2013-3-12,72.7,65.8,59.9,72.5,63.6,56.0,100,93,81,30.00,29.80,15,3,15,0.28
2013-3-13,83.7,63.3,56.8,69.1,53.9,49.8,88,72,58,30.15,30.00,15,4,15,0.00
2013-3-14,59.4,55.9,54.7,55.1,45.7,43.2,87,69,64,30.18,30.15,8,2,8,0.00
2013-3-15,54.7,54.7,54.7,43.2,43.2,43.2,65,65,65,30.18,30.18,2,2,3,0.00
2013-3-16,69.4,58.8,54.7,60.7,50.8,43.2,100,75,65,30.18,30.03,8,2,8,0.00
2013-3-17,72.0,62.9,54.1,65.0,60.2,54.1,100,91,73,30.09,29.94,8,1,8,0.00
2013-3-18,73.0,67.1,60.6,72.2,66.8,60.6,100,99,92,30.00,29.80,10,1,10,0.00
2013-3-19,99.3,71.2,63.3,83.0,68.0,63.3,100,91,60,29.97,29.85,9,1,9,0.00
2013-3-20,72.0,66.3,60.3,71.4,66.2,60.1,100,100,96,29.94,29.77,13,1,13,0.24
2013-3-21,99.7,61.6,53.1,78.9,55.4,48.0,100,82,52,29.94,29.85,12,2,12,0.00
2013-3-22,84.6,62.1,51.1,68.7,56.3,46.6,100,82,60,29.97,29.85,9,1,9,1.22
2013-3-23,84.0,71.6,65.7,78.6,70.8,65.7,100,97,79,29.91,29.74,13,1,13,0.04
2013-3-24,78.4,73.2,70.0,78.4,73.2,70.0,100,100,98,29.77,29.59,17,3,17,0.00
2013-3-25,76.1,64.1,58.3,70.0,56.4,48.9,100,77,63,30.00,29.71,21,4,21,0.00
2013-3-26,66.7,56.5,51.6,52.9,45.9,42.9,73,68,61,30.18,30.00,21,4,21,0.00
2013-3-27,68.0,52.1,43.2,53.8,43.1,35.8,86,72,62,30.30,30.15,13,3,13,0.00
2013-3-28,75.0,55.7,46.0,58.6,47.5,41.8,100,76,58,30.27,30.18,13,2,13,0.00
2013-3-29,78.1,60.0,49.5,60.8,52.3,47.2,94,77,56,30.30,30.18,10,2,10,0.00
2013-3-30,77.7,62.9,51.8,62.6,56.3,49.3,99,81,58,30.24,30.09,11,1,11,0.00
2013-3-31,79.5,67.3,58.5,64.5,61.3,58.3,100,83,57,30.12,29.97,14,1,14,0.00